Twigg, Illinois
Current Conditions -  °F | °C
As of 4:35 PM on Monday 26 Jan 2015 (Local Time) from KHSB Reporting Station
Overcast Overcast  
Wind Chill: 32°   Ceiling: 7500
Heat Index: 32°   Visibility: 10mi
Dew Point: 29°   Wind: 3mph
Humidity: 89%   Direction: 200°SSW
Pressure: 29.96"   Gusts: NA
Location:  37.9948°N, 88.5401°W
Report Text: KHSB 262235Z AUTO 20003KT 10SM OVC075 00/M01 A2996 RMK AO2 T00011015
Loading
Personal Weather Stations






























Interactive Weather Map New forecast layout! Learn more

10-Day Weather Forecast

Advertisements
Track Severe Weather on mobile